sensor_id;sensor_type;location;lat;lon;timestamp;pressure;altitude;pressure_sealevel;temperature;humidity
29239;BME280;16267;48.194;11.546;2023-06-24T00:00:41;96859.28;;;18.50;73.44
29239;BME280;16267;48.194;11.546;2023-06-24T00:03:07;96863.97;;;18.50;73.86
29239;BME280;16267;48.194;11.546;2023-06-24T00:05:33;96864.72;;;18.50;73.25
29239;BME280;16267;48.194;11.546;2023-06-24T00:07:59;96859.72;;;18.49;73.60
29239;BME280;16267;48.194;11.546;2023-06-24T00:10:28;96861.69;;;18.48;73.71
29239;BME280;16267;48.194;11.546;2023-06-24T00:12:54;96857.00;;;18.49;72.90
29239;BME280;16267;48.194;11.546;2023-06-24T00:15:20;96861.69;;;18.48;72.35
29239;BME280;16267;48.194;11.546;2023-06-24T00:17:45;96860.16;;;18.47;72.87
29239;BME280;16267;48.194;11.546;2023-06-24T00:20:11;96850.91;;;18.45;72.77
29239;BME280;16267;48.194;11.546;2023-06-24T00:22:58;96859.81;;;18.45;72.46
29239;BME280;16267;48.194;11.546;2023-06-24T00:25:30;96850.47;;;18.46;72.19
29239;BME280;16267;48.194;11.546;2023-06-24T00:28:09;96851.22;;;18.47;72.17
29239;BME280;16267;48.194;11.546;2023-06-24T00:30:40;96852.00;;;18.47;72.23
29239;BME280;16267;48.194;11.546;2023-06-24T00:33:14;96853.53;;;18.48;72.19
29239;BME280;16267;48.194;11.546;2023-06-24T00:35:58;96851.22;;;18.47;72.04
29239;BME280;16267;48.194;11.546;2023-06-24T00:38:29;96854.72;;;18.47;72.69
29239;BME280;16267;48.194;11.546;2023-06-24T00:41:25;96852.44;;;18.46;72.05
29239;BME280;16267;48.194;11.546;2023-06-24T00:44:25;96847.75;;;18.46;72.11
29239;BME280;16267;48.194;11.546;2023-06-24T00:46:51;96844.28;;;18.46;72.15
29239;BME280;16267;48.194;11.546;2023-06-24T00:49:17;96843.50;;;18.45;72.31
29239;BME280;16267;48.194;11.546;2023-06-24T00:51:45;96842.75;;;18.45;72.32
29239;BME280;16267;48.194;11.546;2023-06-24T00:54:35;96839.25;;;18.44;71.92
29239;BME280;16267;48.194;11.546;2023-06-24T00:57:07;96841.56;;;18.46;71.97
29239;BME280;16267;48.194;11.546;2023-06-24T00:59:40;96838.06;;;18.45;71.49
29239;BME280;16267;48.194;11.546;2023-06-24T01:02:09;96838.84;;;18.46;71.58
29239;BME280;16267;48.194;11.546;2023-06-24T01:04:34;96827.19;;;18.45;71.72
29239;BME280;16267;48.194;11.546;2023-06-24T01:07:04;96814.81;;;18.44;71.91
29239;BME280;16267;48.194;11.546;2023-06-24T01:09:31;96819.47;;;18.44;71.67
29239;BME280;16267;48.194;11.546;2023-06-24T01:11:56;96825.66;;;18.44;71.32
29239;BME280;16267;48.194;11.546;2023-06-24T01:14:22;96816.75;;;18.44;71.62
29239;BME280;16267;48.194;11.546;2023-06-24T01:22:37;96809.81;;;18.43;71.74
29239;BME280;16267;48.194;11.546;2023-06-24T01:31:39;96811.44;;;18.40;70.87
29239;BME280;16267;48.194;11.546;2023-06-24T01:34:14;96807.50;;;18.41;71.36
29239;BME280;16267;48.194;11.546;2023-06-24T01:36:50;96808.28;;;18.42;70.93
29239;BME280;16267;48.194;11.546;2023-06-24T01:39:18;96814.91;;;18.41;71.13
29239;BME280;16267;48.194;11.546;2023-06-24T01:41:59;96815.66;;;18.41;71.22
29239;BME280;16267;48.194;11.546;2023-06-24T01:44:28;96810.22;;;18.41;71.75
29239;BME280;16267;48.194;11.546;2023-06-24T01:46:57;96800.75;;;18.33;71.84
29239;BME280;16267;48.194;11.546;2023-06-24T01:49:28;96801.50;;;18.34;71.80
29239;BME280;16267;48.194;11.546;2023-06-24T01:51:57;96802.28;;;18.34;71.68
29239;BME280;16267;48.194;11.546;2023-06-24T01:54:24;96801.09;;;18.35;70.99
29239;BME280;16267;48.194;11.546;2023-06-24T01:56:52;96801.09;;;18.35;71.25
29239;BME280;16267;48.194;11.546;2023-06-24T01:59:21;96800.34;;;18.35;70.82
29239;BME280;16267;48.194;11.546;2023-06-24T02:01:48;96799.88;;;18.36;70.55
29239;BME280;16267;48.194;11.546;2023-06-24T02:04:17;96796.41;;;18.36;70.88
29239;BME280;16267;48.194;11.546;2023-06-24T02:06:44;96801.84;;;18.36;70.99
29239;BME280;16267;48.194;11.546;2023-06-24T02:09:12;96793.69;;;18.36;70.53
29239;BME280;16267;48.194;11.546;2023-06-24T02:11:40;96797.63;;;18.35;70.83
29239;BME280;16267;48.194;11.546;2023-06-24T02:14:07;96792.19;;;18.35;70.34
29239;BME280;16267;48.194;11.546;2023-06-24T02:16:35;96794.44;;;18.36;70.53
29239;BME280;16267;48.194;11.546;2023-06-24T02:19:03;96792.94;;;18.35;70.65
29239;BME280;16267;48.194;11.546;2023-06-24T02:21:30;96798.38;;;18.35;70.52
29239;BME280;16267;48.194;11.546;2023-06-24T02:23:57;96803.47;;;18.33;70.25
29239;BME280;16267;48.194;11.546;2023-06-24T02:26:23;96806.09;;;18.37;70.49
29239;BME280;16267;48.194;11.546;2023-06-24T02:28:51;96804.22;;;18.34;70.24
29239;BME280;16267;48.194;11.546;2023-06-24T02:31:17;96803.47;;;18.33;70.39
29239;BME280;16267;48.194;11.546;2023-06-24T02:33:43;96806.19;;;18.33;70.66
29239;BME280;16267;48.194;11.546;2023-06-24T02:36:09;96806.19;;;18.33;70.58
29239;BME280;16267;48.194;11.546;2023-06-24T02:38:36;96808.16;;;18.33;70.14
29239;BME280;16267;48.194;11.546;2023-06-24T02:41:02;96804.69;;;18.32;70.27
29239;BME280;16267;48.194;11.546;2023-06-24T02:43:30;96806.19;;;18.33;70.21
29239;BME280;16267;48.194;11.546;2023-06-24T02:45:58;96809.31;;;18.32;70.51
29239;BME280;16267;48.194;11.546;2023-06-24T02:48:26;96808.56;;;18.31;70.41
29239;BME280;16267;48.194;11.546;2023-06-24T02:50:54;96809.31;;;18.32;70.44
29239;BME280;16267;48.194;11.546;2023-06-24T02:53:21;96816.72;;;18.31;70.24
29239;BME280;16267;48.194;11.546;2023-06-24T02:55:47;96824.88;;;18.31;70.12
29239;BME280;16267;48.194;11.546;2023-06-24T02:58:13;96830.31;;;18.31;70.17
29239;BME280;16267;48.194;11.546;2023-06-24T03:00:40;96835.75;;;18.31;70.40
29239;BME280;16267;48.194;11.546;2023-06-24T03:03:06;96833.47;;;18.30;70.32
29239;BME280;16267;48.194;11.546;2023-06-24T03:05:32;96836.19;;;18.30;70.05
29239;BME280;16267;48.194;11.546;2023-06-24T03:07:59;96830.75;;;18.30;70.34
29239;BME280;16267;48.194;11.546;2023-06-24T03:10:25;96833.88;;;18.28;69.96
29239;BME280;16267;48.194;11.546;2023-06-24T03:12:52;96837.38;;;18.28;69.87
29239;BME280;16267;48.194;11.546;2023-06-24T03:15:19;96838.16;;;18.29;69.50
29239;BME280;16267;48.194;11.546;2023-06-24T03:17:44;96840.06;;;18.28;69.64
29239;BME280;16267;48.194;11.546;2023-06-24T03:20:10;96837.38;;;18.28;69.95
29239;BME280;16267;48.194;11.546;2023-06-24T03:22:36;96845.50;;;18.28;69.57
29239;BME280;16267;48.194;11.546;2023-06-24T03:25:02;96855.63;;;18.28;69.76
29239;BME280;16267;48.194;11.546;2023-06-24T03:27:28;96864.53;;;18.28;69.62
29239;BME280;16267;48.194;11.546;2023-06-24T03:29:54;96861.06;;;18.28;69.70
29239;BME280;16267;48.194;11.546;2023-06-24T03:32:20;96858.78;;;18.26;69.87
29239;BME280;16267;48.194;11.546;2023-06-24T03:34:45;96864.22;;;18.26;69.69
29239;BME280;16267;48.194;11.546;2023-06-24T03:37:11;96855.28;;;18.26;69.51
29239;BME280;16267;48.194;11.546;2023-06-24T03:39:37;96858.00;;;18.26;69.74
29239;BME280;16267;48.194;11.546;2023-06-24T03:42:03;96863.44;;;18.26;69.78
29239;BME280;16267;48.194;11.546;2023-06-24T03:44:29;96864.22;;;18.26;69.50
29239;BME280;16267;48.194;11.546;2023-06-24T03:46:55;96869.66;;;18.26;69.30
29239;BME280;16267;48.194;11.546;2023-06-24T03:49:20;96877.03;;;18.26;69.33
29239;BME280;16267;48.194;11.546;2023-06-24T03:51:46;96860.72;;;18.26;69.97
29239;BME280;16267;48.194;11.546;2023-06-24T03:54:12;96863.44;;;18.26;69.48
29239;BME280;16267;48.194;11.546;2023-06-24T03:56:38;96856.81;;;18.27;69.39
29239;BME280;16267;48.194;11.546;2023-06-24T03:59:03;96854.88;;;18.27;69.33
29239;BME280;16267;48.194;11.546;2023-06-24T04:01:29;96857.59;;;18.27;69.41
29239;BME280;16267;48.194;11.546;2023-06-24T04:03:58;96858.34;;;18.28;70.04
29239;BME280;16267;48.194;11.546;2023-06-24T04:06:24;96873.47;;;18.29;70.08
29239;BME280;16267;48.194;11.546;2023-06-24T04:08:50;96868.78;;;18.30;69.66
29239;BME280;16267;48.194;11.546;2023-06-24T04:11:18;96870.75;;;18.29;70.04
29239;BME280;16267;48.194;11.546;2023-06-24T04:13:45;96869.56;;;18.30;69.96
29239;BME280;16267;48.194;11.546;2023-06-24T04:16:13;96869.56;;;18.30;69.77
29239;BME280;16267;48.194;11.546;2023-06-24T04:18:39;96865.63;;;18.31;69.57
29239;BME280;16267;48.194;11.546;2023-06-24T04:21:06;96863.69;;;18.32;69.74
29239;BME280;16267;48.194;11.546;2023-06-24T04:23:34;96865.97;;;18.33;70.07
29239;BME280;16267;48.194;11.546;2023-06-24T04:26:00;96862.50;;;18.33;69.70
29239;BME280;16267;48.194;11.546;2023-06-24T04:28:26;96873.72;;;18.35;69.62
29239;BME280;16267;48.194;11.546;2023-06-24T04:30:52;96868.28;;;18.35;69.50
29239;BME280;16267;48.194;11.546;2023-06-24T04:33:18;96866.31;;;18.35;69.23
29239;BME280;16267;48.194;11.546;2023-06-24T04:35:43;96866.63;;;18.37;68.67
29239;BME280;16267;48.194;11.546;2023-06-24T04:38:10;96871.66;;;18.39;68.39
29239;BME280;16267;48.194;11.546;2023-06-24T04:40:36;96880.91;;;18.41;68.56
29239;BME280;16267;48.194;11.546;2023-06-24T04:43:02;96878.53;;;18.43;68.65
29239;BME280;16267;48.194;11.546;2023-06-24T04:45:28;96885.47;;;18.44;68.11
29239;BME280;16267;48.194;11.546;2023-06-24T04:47:53;96882.75;;;18.44;68.01
29239;BME280;16267;48.194;11.546;2023-06-24T04:50:19;96881.47;;;18.49;67.96
29239;BME280;16267;48.194;11.546;2023-06-24T04:52:45;96889.19;;;18.50;68.01
29239;BME280;16267;48.194;11.546;2023-06-24T04:55:11;96889.09;;;18.54;68.06
29239;BME280;16267;48.194;11.546;2023-06-24T04:57:36;96885.19;;;18.55;68.18
29239;BME280;16267;48.194;11.546;2023-06-24T05:00:03;96896.41;;;18.57;68.09
29239;BME280;16267;48.194;11.546;2023-06-24T05:02:29;96892.47;;;18.58;68.25
29239;BME280;16267;48.194;11.546;2023-06-24T05:04:55;96893.97;;;18.59;67.85
29239;BME280;16267;48.194;11.546;2023-06-24T05:07:21;96890.84;;;18.61;68.03
29239;BME280;16267;48.194;11.546;2023-06-24T05:09:48;96886.16;;;18.61;67.89
29239;BME280;16267;48.194;11.546;2023-06-24T05:12:13;96888.88;;;18.61;67.96
29239;BME280;16267;48.194;11.546;2023-06-24T05:14:39;96887.25;;;18.64;67.80
29239;BME280;16267;48.194;11.546;2023-06-24T05:17:05;96886.41;;;18.67;67.66
29239;BME280;16267;48.194;11.546;2023-06-24T05:19:31;96878.59;;;18.69;67.38
29239;BME280;16267;48.194;11.546;2023-06-24T05:21:58;96887.94;;;18.68;67.26
29239;BME280;16267;48.194;11.546;2023-06-24T05:24:23;96894.91;;;18.69;67.28
29239;BME280;16267;48.194;11.546;2023-06-24T05:26:53;96889.78;;;18.71;67.04
29239;BME280;16267;48.194;11.546;2023-06-24T05:29:19;96886.63;;;18.72;66.96
29239;BME280;16267;48.194;11.546;2023-06-24T05:31:45;96893.19;;;18.75;66.92
29239;BME280;16267;48.194;11.546;2023-06-24T05:34:11;96888.84;;;18.78;67.17
29239;BME280;16267;48.194;11.546;2023-06-24T05:36:37;96899.31;;;18.79;66.56
29239;BME280;16267;48.194;11.546;2023-06-24T05:39:03;96903.97;;;18.79;67.06
29239;BME280;16267;48.194;11.546;2023-06-24T05:41:30;96904.75;;;18.79;66.28
29239;BME280;16267;48.194;11.546;2023-06-24T05:44:07;96902.34;;;18.81;66.11
29239;BME280;16267;48.194;11.546;2023-06-24T05:46:35;96902.25;;;18.85;66.51
29239;BME280;16267;48.194;11.546;2023-06-24T05:49:02;96899.75;;;18.90;66.43
29239;BME280;16267;48.194;11.546;2023-06-24T05:51:28;96898.91;;;18.93;66.29
29239;BME280;16267;48.194;11.546;2023-06-24T05:53:53;96900.00;;;18.96;66.64
29239;BME280;16267;48.194;11.546;2023-06-24T05:56:21;96908.03;;;19.00;66.56
29239;BME280;16267;48.194;11.546;2023-06-24T05:58:48;96903.25;;;19.04;66.75
29239;BME280;16267;48.194;11.546;2023-06-24T06:01:14;96911.41;;;19.04;65.83
29239;BME280;16267;48.194;11.546;2023-06-24T06:03:40;96917.19;;;19.06;66.69
29239;BME280;16267;48.194;11.546;2023-06-24T06:06:06;96919.03;;;19.09;66.82
29239;BME280;16267;48.194;11.546;2023-06-24T06:08:33;96914.25;;;19.13;66.40
29239;BME280;16267;48.194;11.546;2023-06-24T06:10:59;96912.06;;;19.08;65.46
29239;BME280;16267;48.194;11.546;2023-06-24T06:13:28;96913.41;;;19.16;65.89
29239;BME280;16267;48.194;11.546;2023-06-24T06:15:54;96911.31;;;19.20;64.83
29239;BME280;16267;48.194;11.546;2023-06-24T06:18:20;96910.91;;;19.34;65.02
29239;BME280;16267;48.194;11.546;2023-06-24T06:20:46;96908.41;;;19.40;64.24
29239;BME280;16267;48.194;11.546;2023-06-24T06:23:11;96906.41;;;19.53;64.23
29239;BME280;16267;48.194;11.546;2023-06-24T06:25:37;96911.88;;;19.66;63.79
29239;BME280;16267;48.194;11.546;2023-06-24T06:28:04;96909.16;;;19.79;63.71
29239;BME280;16267;48.194;11.546;2023-06-24T06:30:30;96908.78;;;19.90;61.24
29239;BME280;16267;48.194;11.546;2023-06-24T06:32:56;96914.22;;;20.02;62.15
29239;BME280;16267;48.194;11.546;2023-06-24T06:35:21;96912.97;;;20.16;61.31
29239;BME280;16267;48.194;11.546;2023-06-24T06:37:47;96910.53;;;20.31;60.28
29239;BME280;16267;48.194;11.546;2023-06-24T06:40:19;96897.28;;;20.42;58.74
29239;BME280;16267;48.194;11.546;2023-06-24T06:42:44;96904.31;;;20.53;57.09
29239;BME280;16267;48.194;11.546;2023-06-24T06:45:10;96905.13;;;20.53;55.18
29239;BME280;16267;48.194;11.546;2023-06-24T06:47:36;96915.09;;;20.69;54.36
29239;BME280;16267;48.194;11.546;2023-06-24T06:50:02;96915.59;;;20.77;52.30
29239;BME280;16267;48.194;11.546;2023-06-24T06:52:28;96906.56;;;20.89;53.18
29239;BME280;16267;48.194;11.546;2023-06-24T06:54:55;96909.94;;;20.93;52.13
29239;BME280;16267;48.194;11.546;2023-06-24T06:57:20;96906.63;;;20.98;52.23
29239;BME280;16267;48.194;11.546;2023-06-24T06:59:46;96908.72;;;20.94;49.09
29239;BME280;16267;48.194;11.546;2023-06-24T07:02:12;96911.72;;;20.87;49.49
29239;BME280;16267;48.194;11.546;2023-06-24T07:04:38;96907.31;;;20.89;49.70
29239;BME280;16267;48.194;11.546;2023-06-24T07:07:04;96914.19;;;20.94;51.41
29239;BME280;16267;48.194;11.546;2023-06-24T07:09:30;96908.72;;;20.94;50.96
29239;BME280;16267;48.194;11.546;2023-06-24T07:11:56;96911.00;;;20.96;51.35
29239;BME280;16267;48.194;11.546;2023-06-24T07:14:21;96911.63;;;21.00;51.96
29239;BME280;16267;48.194;11.546;2023-06-24T07:16:47;96911.63;;;21.00;50.73
29239;BME280;16267;48.194;11.546;2023-06-24T07:19:13;96906.94;;;21.00;49.83
29239;BME280;16267;48.194;11.546;2023-06-24T07:21:39;96908.56;;;20.98;49.68
29239;BME280;16267;48.194;11.546;2023-06-24T07:24:05;96907.81;;;20.97;50.08
29239;BME280;16267;48.194;11.546;2023-06-24T07:26:31;96902.25;;;21.01;51.60
29239;BME280;16267;48.194;11.546;2023-06-24T07:28:57;96901.59;;;20.97;50.37
29239;BME280;16267;48.194;11.546;2023-06-24T07:31:26;96907.06;;;20.97;50.98
29239;BME280;16267;48.194;11.546;2023-06-24T07:33:51;96908.91;;;21.00;51.65
29239;BME280;16267;48.194;11.546;2023-06-24T07:36:17;96908.31;;;21.05;52.47
29239;BME280;16267;48.194;11.546;2023-06-24T07:38:44;96907.44;;;21.08;52.30
29239;BME280;16267;48.194;11.546;2023-06-24T07:41:10;96905.03;;;21.10;51.71
29239;BME280;16267;48.194;11.546;2023-06-24T07:43:36;96906.84;;;21.13;51.77
29239;BME280;16267;48.194;11.546;2023-06-24T07:46:02;96900.50;;;21.16;51.39
29239;BME280;16267;48.194;11.546;2023-06-24T07:48:28;96904.44;;;21.15;51.69
29239;BME280;16267;48.194;11.546;2023-06-24T07:50:53;96912.16;;;21.16;52.07
29239;BME280;16267;48.194;11.546;2023-06-24T07:53:19;96913.06;;;21.13;51.26
29239;BME280;16267;48.194;11.546;2023-06-24T07:55:45;96914.59;;;21.14;51.11
29239;BME280;16267;48.194;11.546;2023-06-24T07:58:11;96910.19;;;21.17;52.42
29239;BME280;16267;48.194;11.546;2023-06-24T08:00:37;96925.25;;;21.22;52.75
29239;BME280;16267;48.194;11.546;2023-06-24T08:03:03;96925.56;;;21.24;52.37
29239;BME280;16267;48.194;11.546;2023-06-24T08:05:29;96923.00;;;21.29;52.64
29239;BME280;16267;48.194;11.546;2023-06-24T08:07:55;96924.84;;;21.32;52.24
29239;BME280;16267;48.194;11.546;2023-06-24T08:10:21;96919.81;;;21.31;51.58
29239;BME280;16267;48.194;11.546;2023-06-24T08:12:46;96922.44;;;21.34;52.31
29239;BME280;16267;48.194;11.546;2023-06-24T08:15:13;96925.59;;;21.33;52.09
29239;BME280;16267;48.194;11.546;2023-06-24T08:17:39;96921.94;;;21.27;51.27
29239;BME280;16267;48.194;11.546;2023-06-24T08:20:05;96919.78;;;21.22;51.53
29239;BME280;16267;48.194;11.546;2023-06-24T08:22:31;96919.06;;;21.30;52.34
29239;BME280;16267;48.194;11.546;2023-06-24T08:24:58;96916.31;;;21.30;52.37
29239;BME280;16267;48.194;11.546;2023-06-24T08:27:24;96910.63;;;21.37;52.13
29239;BME280;16267;48.194;11.546;2023-06-24T08:29:50;96913.38;;;21.47;52.46
29239;BME280;16267;48.194;11.546;2023-06-24T08:32:15;96909.91;;;21.55;52.04
29239;BME280;16267;48.194;11.546;2023-06-24T08:34:41;96911.91;;;21.64;52.00
29239;BME280;16267;48.194;11.546;2023-06-24T08:37:07;96906.63;;;21.70;51.47
29239;BME280;16267;48.194;11.546;2023-06-24T08:39:33;96904.25;;;21.81;51.85
29239;BME280;16267;48.194;11.546;2023-06-24T08:41:59;96905.75;;;21.91;52.05
29239;BME280;16267;48.194;11.546;2023-06-24T08:44:25;96903.06;;;22.00;51.79
29239;BME280;16267;48.194;11.546;2023-06-24T08:46:51;96908.84;;;22.12;52.20
29239;BME280;16267;48.194;11.546;2023-06-24T08:52:12;96903.25;;;22.24;50.69
29239;BME280;16267;48.194;11.546;2023-06-24T08:54:40;96897.47;;;22.32;49.83
29239;BME280;16267;48.194;11.546;2023-06-24T08:57:07;96896.88;;;22.37;49.41
29239;BME280;16267;48.194;11.546;2023-06-24T08:59:34;96896.41;;;22.38;48.87
29239;BME280;16267;48.194;11.546;2023-06-24T09:02:01;96895.34;;;22.45;50.11
29239;BME280;16267;48.194;11.546;2023-06-24T09:04:27;96892.59;;;22.54;50.05
29239;BME280;16267;48.194;11.546;2023-06-24T09:06:52;96888.66;;;22.64;49.97
29239;BME280;16267;48.194;11.546;2023-06-24T09:09:22;96885.41;;;22.75;51.01
29239;BME280;16267;48.194;11.546;2023-06-24T09:11:57;96887.06;;;22.91;50.21
29239;BME280;16267;48.194;11.546;2023-06-24T09:14:29;96893.16;;;22.95;47.62
29239;BME280;16267;48.194;11.546;2023-06-24T09:16:57;96898.00;;;22.91;46.78
29239;BME280;16267;48.194;11.546;2023-06-24T09:19:25;96896.03;;;22.91;47.89
29239;BME280;16267;48.194;11.546;2023-06-24T09:22:07;96892.09;;;22.92;47.61
29239;BME280;16267;48.194;11.546;2023-06-24T09:24:36;96894.34;;;22.94;48.17
29239;BME280;16267;48.194;11.546;2023-06-24T09:27:03;96892.84;;;22.93;47.72
29239;BME280;16267;48.194;11.546;2023-06-24T09:29:35;96889.97;;;22.87;47.76
29239;BME280;16267;48.194;11.546;2023-06-24T09:32:05;96889.81;;;22.82;47.49
29239;BME280;16267;48.194;11.546;2023-06-24T09:34:32;96893.75;;;22.81;47.43
29239;BME280;16267;48.194;11.546;2023-06-24T09:36:58;96884.81;;;22.80;47.25
29239;BME280;16267;48.194;11.546;2023-06-24T09:39:26;96887.56;;;22.71;46.36
29239;BME280;16267;48.194;11.546;2023-06-24T09:42:01;96889.84;;;22.73;47.25
29239;BME280;16267;48.194;11.546;2023-06-24T09:44:28;96889.22;;;22.78;46.13
29239;BME280;16267;48.194;11.546;2023-06-24T09:46:55;96887.72;;;22.77;45.88
29239;BME280;16267;48.194;11.546;2023-06-24T09:49:24;96884.81;;;22.71;47.08
29239;BME280;16267;48.194;11.546;2023-06-24T09:51:56;96879.81;;;22.79;47.64
29239;BME280;16267;48.194;11.546;2023-06-24T09:54:28;96877.06;;;22.79;46.87
29239;BME280;16267;48.194;11.546;2023-06-24T09:56:57;96882.38;;;22.82;46.95
29239;BME280;16267;48.194;11.546;2023-06-24T09:59:25;96870.19;;;22.92;46.56
29239;BME280;16267;48.194;11.546;2023-06-24T10:01:55;96871.69;;;22.93;45.10
29239;BME280;16267;48.194;11.546;2023-06-24T10:04:22;96875.97;;;23.04;46.26
29239;BME280;16267;48.194;11.546;2023-06-24T10:06:49;96873.50;;;23.15;45.31
29239;BME280;16267;48.194;11.546;2023-06-24T10:09:15;96868.28;;;23.26;44.87
29239;BME280;16267;48.194;11.546;2023-06-24T10:11:45;96865.53;;;23.26;43.43
29239;BME280;16267;48.194;11.546;2023-06-24T10:14:11;96848.91;;;23.30;42.61
29239;BME280;16267;48.194;11.546;2023-06-24T10:16:37;96851.97;;;23.32;43.24
29239;BME280;16267;48.194;11.546;2023-06-24T10:19:03;96853.97;;;23.22;41.75
29239;BME280;16267;48.194;11.546;2023-06-24T10:21:54;96848.59;;;23.37;43.16
29239;BME280;16267;48.194;11.546;2023-06-24T10:24:34;96839.88;;;23.48;43.47
29239;BME280;16267;48.194;11.546;2023-06-24T10:27:21;96842.72;;;23.53;42.09
29239;BME280;16267;48.194;11.546;2023-06-24T10:29:52;96843.00;;;23.55;41.33
29239;BME280;16267;48.194;11.546;2023-06-24T10:32:21;96842.84;;;23.59;40.19
29239;BME280;16267;48.194;11.546;2023-06-24T10:34:53;96845.59;;;23.59;40.02
29239;BME280;16267;48.194;11.546;2023-06-24T10:37:25;96833.88;;;23.58;39.66
29239;BME280;16267;48.194;11.546;2023-06-24T10:39:56;96836.00;;;23.54;39.95
29239;BME280;16267;48.194;11.546;2023-06-24T10:42:42;96831.91;;;23.50;40.71
29239;BME280;16267;48.194;11.546;2023-06-24T10:47:42;96826.31;;;23.44;41.24
29239;BME280;16267;48.194;11.546;2023-06-24T10:50:11;96814.44;;;23.47;41.06
29239;BME280;16267;48.194;11.546;2023-06-24T10:52:39;96811.66;;;23.56;40.34
29239;BME280;16267;48.194;11.546;2023-06-24T10:55:05;96812.19;;;23.70;40.28
29239;BME280;16267;48.194;11.546;2023-06-24T10:57:33;96810.75;;;23.84;40.23
29239;BME280;16267;48.194;11.546;2023-06-24T10:59:59;96805.28;;;23.98;39.77
29239;BME280;16267;48.194;11.546;2023-06-24T11:02:27;96800.16;;;23.91;37.93
29239;BME280;16267;48.194;11.546;2023-06-24T11:04:59;96799.56;;;24.11;39.26
29239;BME280;16267;48.194;11.546;2023-06-24T11:07:48;96801.06;;;24.27;40.17
29239;BME280;16267;48.194;11.546;2023-06-24T11:10:16;96796.31;;;24.27;38.35
29239;BME280;16267;48.194;11.546;2023-06-24T11:12:43;96801.72;;;24.22;37.63
29239;BME280;16267;48.194;11.546;2023-06-24T11:15:11;96799.94;;;24.34;38.62
29239;BME280;16267;48.194;11.546;2023-06-24T11:17:39;96790.25;;;24.47;39.47
29239;BME280;16267;48.194;11.546;2023-06-24T11:20:10;96779.25;;;24.62;40.11
29239;BME280;16267;48.194;11.546;2023-06-24T11:22:37;96784.53;;;24.81;40.28
29239;BME280;16267;48.194;11.546;2023-06-24T11:25:03;96780.34;;;24.85;39.14
29239;BME280;16267;48.194;11.546;2023-06-24T11:27:30;96779.31;;;24.83;38.61
29239;BME280;16267;48.194;11.546;2023-06-24T11:29:59;96780.50;;;24.97;39.47
29239;BME280;16267;48.194;11.546;2023-06-24T11:32:38;96773.00;;;25.12;38.43
29239;BME280;16267;48.194;11.546;2023-06-24T11:35:08;96761.16;;;25.21;37.30
29239;BME280;16267;48.194;11.546;2023-06-24T11:37:35;96759.31;;;25.32;38.19
29239;BME280;16267;48.194;11.546;2023-06-24T11:40:05;96765.72;;;25.44;37.74
29239;BME280;16267;48.194;11.546;2023-06-24T11:42:32;96767.84;;;25.55;36.83
29239;BME280;16267;48.194;11.546;2023-06-24T11:45:08;96756.22;;;25.66;36.53
29239;BME280;16267;48.194;11.546;2023-06-24T11:47:37;96752.31;;;25.72;36.38
29239;BME280;16267;48.194;11.546;2023-06-24T11:50:08;96751.72;;;25.83;35.95
29239;BME280;16267;48.194;11.546;2023-06-24T11:52:44;96743.72;;;25.85;35.42
29239;BME280;16267;48.194;11.546;2023-06-24T11:55:24;96746.84;;;25.98;35.74
29239;BME280;16267;48.194;11.546;2023-06-24T11:58:03;96745.09;;;25.95;35.09
29239;BME280;16267;48.194;11.546;2023-06-24T12:00:38;96734.56;;;25.94;34.88
29239;BME280;16267;48.194;11.546;2023-06-24T12:03:07;96732.34;;;25.98;34.73
29239;BME280;16267;48.194;11.546;2023-06-24T12:05:36;96727.19;;;26.06;34.22
29239;BME280;16267;48.194;11.546;2023-06-24T12:08:07;96731.78;;;26.14;34.78
29239;BME280;16267;48.194;11.546;2023-06-24T12:10:34;96732.78;;;26.17;33.74
29239;BME280;16267;48.194;11.546;2023-06-24T12:13:04;96727.25;;;26.11;33.60
29239;BME280;16267;48.194;11.546;2023-06-24T12:15:31;96732.13;;;26.01;33.51
29239;BME280;16267;48.194;11.546;2023-06-24T12:17:58;96731.28;;;25.90;33.68
29239;BME280;16267;48.194;11.546;2023-06-24T12:20:28;96725.41;;;25.82;34.30
29239;BME280;16267;48.194;11.546;2023-06-24T12:22:54;96718.41;;;25.81;34.38
29239;BME280;16267;48.194;11.546;2023-06-24T12:25:21;96703.41;;;25.82;35.39
29239;BME280;16267;48.194;11.546;2023-06-24T12:27:47;96706.91;;;25.82;34.79
29239;BME280;16267;48.194;11.546;2023-06-24T12:30:13;96700.97;;;25.84;34.24
29239;BME280;16267;48.194;11.546;2023-06-24T12:32:40;96705.22;;;25.85;34.70
29239;BME280;16267;48.194;11.546;2023-06-24T12:35:06;96706.00;;;25.86;34.38
29239;BME280;16267;48.194;11.546;2023-06-24T12:37:34;96697.47;;;25.84;34.27
29239;BME280;16267;48.194;11.546;2023-06-24T12:40:04;96691.13;;;25.77;34.09
29239;BME280;16267;48.194;11.546;2023-06-24T12:42:30;96689.56;;;25.71;34.06
29239;BME280;16267;48.194;11.546;2023-06-24T12:44:56;96697.75;;;25.65;34.38
29239;BME280;16267;48.194;11.546;2023-06-24T12:47:22;96694.41;;;25.55;33.93
29239;BME280;16267;48.194;11.546;2023-06-24T12:49:49;96689.38;;;25.54;34.18
29239;BME280;16267;48.194;11.546;2023-06-24T12:52:15;96689.38;;;25.54;35.20
29239;BME280;16267;48.194;11.546;2023-06-24T12:54:41;96691.66;;;25.55;34.99
29239;BME280;16267;48.194;11.546;2023-06-24T12:57:07;96682.09;;;25.51;35.50
29239;BME280;16267;48.194;11.546;2023-06-24T12:59:33;96680.38;;;25.53;36.06
29239;BME280;16267;48.194;11.546;2023-06-24T13:01:59;96676.88;;;25.53;35.24
29239;BME280;16267;48.194;11.546;2023-06-24T13:04:26;96671.91;;;25.57;35.36
29239;BME280;16267;48.194;11.546;2023-06-24T13:06:53;96682.16;;;25.56;34.27
29239;BME280;16267;48.194;11.546;2023-06-24T13:09:19;96669.22;;;25.63;34.63
29239;BME280;16267;48.194;11.546;2023-06-24T13:11:45;96664.06;;;25.70;34.48